sensor_id;sensor_type;location;lat;lon;timestamp;temperature;humidity
20839;DHT22;10580;51.092;6.828;2022-08-18T00:01:49;18.40;99.90
20839;DHT22;10580;51.092;6.828;2022-08-18T00:04:15;18.40;99.90
20839;DHT22;10580;51.092;6.828;2022-08-18T00:06:41;18.30;99.90
20839;DHT22;10580;51.092;6.828;2022-08-18T00:09:08;18.30;99.90
20839;DHT22;10580;51.092;6.828;2022-08-18T00:11:39;18.30;99.90
20839;DHT22;10580;51.092;6.828;2022-08-18T00:14:05;18.30;99.90
20839;DHT22;10580;51.092;6.828;2022-08-18T00:16:31;18.30;99.90
20839;DHT22;10580;51.092;6.828;2022-08-18T00:18:56;18.30;99.90
20839;DHT22;10580;51.092;6.828;2022-08-18T00:21:22;18.20;99.90
20839;DHT22;10580;51.092;6.828;2022-08-18T00:23:48;18.30;99.90
20839;DHT22;10580;51.092;6.828;2022-08-18T00:26:14;18.30;99.90
20839;DHT22;10580;51.092;6.828;2022-08-18T00:28:40;18.20;99.90
20839;DHT22;10580;51.092;6.828;2022-08-18T00:31:08;18.20;99.90
20839;DHT22;10580;51.092;6.828;2022-08-18T00:33:34;18.20;99.90
20839;DHT22;10580;51.092;6.828;2022-08-18T00:35:59;18.20;99.90
20839;DHT22;10580;51.092;6.828;2022-08-18T00:38:28;18.20;99.90
20839;DHT22;10580;51.092;6.828;2022-08-18T00:40:55;18.20;99.90
20839;DHT22;10580;51.092;6.828;2022-08-18T00:45:56;18.20;99.90
20839;DHT22;10580;51.092;6.828;2022-08-18T00:48:22;18.10;99.90
20839;DHT22;10580;51.092;6.828;2022-08-18T00:50:59;18.10;99.90
20839;DHT22;10580;51.092;6.828;2022-08-18T00:53:47;18.00;99.90
20839;DHT22;10580;51.092;6.828;2022-08-18T00:56:27;18.00;99.90
20839;DHT22;10580;51.092;6.828;2022-08-18T00:59:02;18.00;99.90
20839;DHT22;10580;51.092;6.828;2022-08-18T01:01:31;18.00;99.90
20839;DHT22;10580;51.092;6.828;2022-08-18T01:04:06;18.00;99.90
20839;DHT22;10580;51.092;6.828;2022-08-18T01:09:12;18.00;99.90
20839;DHT22;10580;51.092;6.828;2022-08-18T01:15:15;17.80;99.90
20839;DHT22;10580;51.092;6.828;2022-08-18T01:17:42;17.80;99.90
20839;DHT22;10580;51.092;6.828;2022-08-18T01:20:54;17.70;99.90
20839;DHT22;10580;51.092;6.828;2022-08-18T01:23:40;17.70;99.90
20839;DHT22;10580;51.092;6.828;2022-08-18T01:26:06;17.70;99.90
20839;DHT22;10580;51.092;6.828;2022-08-18T01:28:37;17.70;99.90
20839;DHT22;10580;51.092;6.828;2022-08-18T01:31:37;17.60;99.90
20839;DHT22;10580;51.092;6.828;2022-08-18T01:34:08;17.60;99.90
20839;DHT22;10580;51.092;6.828;2022-08-18T01:36:36;17.70;99.90
20839;DHT22;10580;51.092;6.828;2022-08-18T01:39:04;17.60;99.90
20839;DHT22;10580;51.092;6.828;2022-08-18T01:41:30;17.70;99.90
20839;DHT22;10580;51.092;6.828;2022-08-18T01:44:00;17.60;99.90
20839;DHT22;10580;51.092;6.828;2022-08-18T01:46:29;17.70;99.90
20839;DHT22;10580;51.092;6.828;2022-08-18T01:48:55;17.70;99.90
20839;DHT22;10580;51.092;6.828;2022-08-18T01:51:22;17.70;99.90
20839;DHT22;10580;51.092;6.828;2022-08-18T01:53:48;17.70;99.90
20839;DHT22;10580;51.092;6.828;2022-08-18T01:56:14;17.60;99.90
20839;DHT22;10580;51.092;6.828;2022-08-18T01:58:45;17.50;99.90
20839;DHT22;10580;51.092;6.828;2022-08-18T02:01:13;17.50;99.90
20839;DHT22;10580;51.092;6.828;2022-08-18T02:03:45;17.50;99.90
20839;DHT22;10580;51.092;6.828;2022-08-18T02:06:13;17.60;99.90
20839;DHT22;10580;51.092;6.828;2022-08-18T02:08:40;17.60;99.90
20839;DHT22;10580;51.092;6.828;2022-08-18T02:11:06;17.50;99.90
20839;DHT22;10580;51.092;6.828;2022-08-18T02:13:35;17.50;99.90
20839;DHT22;10580;51.092;6.828;2022-08-18T02:16:02;17.50;99.90
20839;DHT22;10580;51.092;6.828;2022-08-18T02:18:32;17.50;99.90
20839;DHT22;10580;51.092;6.828;2022-08-18T02:21:12;17.50;99.90
20839;DHT22;10580;51.092;6.828;2022-08-18T02:23:39;17.40;99.90
20839;DHT22;10580;51.092;6.828;2022-08-18T02:26:07;17.40;99.90
20839;DHT22;10580;51.092;6.828;2022-08-18T02:28:34;17.50;99.90
20839;DHT22;10580;51.092;6.828;2022-08-18T02:31:11;17.50;99.90
20839;DHT22;10580;51.092;6.828;2022-08-18T02:33:37;17.50;99.90
20839;DHT22;10580;51.092;6.828;2022-08-18T02:39:24;17.50;99.90
20839;DHT22;10580;51.092;6.828;2022-08-18T02:41:49;17.60;99.90
20839;DHT22;10580;51.092;6.828;2022-08-18T02:44:16;17.60;99.90
20839;DHT22;10580;51.092;6.828;2022-08-18T02:46:42;17.50;99.90
20839;DHT22;10580;51.092;6.828;2022-08-18T02:49:08;17.50;99.90
20839;DHT22;10580;51.092;6.828;2022-08-18T02:51:34;17.40;99.90
20839;DHT22;10580;51.092;6.828;2022-08-18T02:54:00;17.50;99.90
20839;DHT22;10580;51.092;6.828;2022-08-18T02:56:29;17.40;99.90
20839;DHT22;10580;51.092;6.828;2022-08-18T02:59:00;17.40;99.90
20839;DHT22;10580;51.092;6.828;2022-08-18T03:01:33;17.40;99.90
20839;DHT22;10580;51.092;6.828;2022-08-18T03:03:59;17.40;99.90
20839;DHT22;10580;51.092;6.828;2022-08-18T03:06:48;17.50;99.90
20839;DHT22;10580;51.092;6.828;2022-08-18T03:09:22;17.50;99.90
20839;DHT22;10580;51.092;6.828;2022-08-18T03:11:54;17.50;99.90
20839;DHT22;10580;51.092;6.828;2022-08-18T03:20:53;17.50;99.90
20839;DHT22;10580;51.092;6.828;2022-08-18T03:23:19;17.50;99.90
20839;DHT22;10580;51.092;6.828;2022-08-18T03:25:46;17.60;99.90
20839;DHT22;10580;51.092;6.828;2022-08-18T03:28:13;17.50;99.90
20839;DHT22;10580;51.092;6.828;2022-08-18T03:31:19;17.60;99.90
20839;DHT22;10580;51.092;6.828;2022-08-18T03:34:05;17.60;99.90
20839;DHT22;10580;51.092;6.828;2022-08-18T03:36:40;17.60;99.90
20839;DHT22;10580;51.092;6.828;2022-08-18T03:41:55;17.60;99.90
20839;DHT22;10580;51.092;6.828;2022-08-18T03:44:23;17.60;99.90
20839;DHT22;10580;51.092;6.828;2022-08-18T03:46:55;17.50;99.90
20839;DHT22;10580;51.092;6.828;2022-08-18T03:49:21;17.40;99.90
20839;DHT22;10580;51.092;6.828;2022-08-18T03:51:53;17.50;99.90
20839;DHT22;10580;51.092;6.828;2022-08-18T03:54:18;17.50;99.90
20839;DHT22;10580;51.092;6.828;2022-08-18T03:56:48;17.50;99.90
20839;DHT22;10580;51.092;6.828;2022-08-18T03:59:17;17.60;99.90
20839;DHT22;10580;51.092;6.828;2022-08-18T04:01:44;17.60;99.90
20839;DHT22;10580;51.092;6.828;2022-08-18T04:04:14;17.60;99.90
20839;DHT22;10580;51.092;6.828;2022-08-18T04:06:43;17.70;99.90
20839;DHT22;10580;51.092;6.828;2022-08-18T04:09:12;17.70;99.90
20839;DHT22;10580;51.092;6.828;2022-08-18T04:11:39;17.70;99.90
20839;DHT22;10580;51.092;6.828;2022-08-18T04:14:08;17.70;99.90
20839;DHT22;10580;51.092;6.828;2022-08-18T04:16:34;17.80;99.90
20839;DHT22;10580;51.092;6.828;2022-08-18T04:19:01;17.80;99.90
20839;DHT22;10580;51.092;6.828;2022-08-18T04:21:33;17.80;99.90
20839;DHT22;10580;51.092;6.828;2022-08-18T04:24:01;17.90;99.90
20839;DHT22;10580;51.092;6.828;2022-08-18T04:26:33;17.90;99.90
20839;DHT22;10580;51.092;6.828;2022-08-18T04:28:59;18.00;99.90
20839;DHT22;10580;51.092;6.828;2022-08-18T04:31:29;18.00;99.90
20839;DHT22;10580;51.092;6.828;2022-08-18T04:33:56;18.00;99.90
20839;DHT22;10580;51.092;6.828;2022-08-18T04:36:24;18.00;99.90
20839;DHT22;10580;51.092;6.828;2022-08-18T04:38:52;18.00;99.90
20839;DHT22;10580;51.092;6.828;2022-08-18T04:45:20;18.00;99.90
20839;DHT22;10580;51.092;6.828;2022-08-18T04:47:49;18.20;99.90
20839;DHT22;10580;51.092;6.828;2022-08-18T04:50:16;18.20;99.90
20839;DHT22;10580;51.092;6.828;2022-08-18T04:53:00;18.20;99.90
20839;DHT22;10580;51.092;6.828;2022-08-18T04:55:55;18.20;99.90
20839;DHT22;10580;51.092;6.828;2022-08-18T04:58:22;18.20;99.90
20839;DHT22;10580;51.092;6.828;2022-08-18T05:01:00;18.20;99.90
20839;DHT22;10580;51.092;6.828;2022-08-18T05:03:26;18.20;99.90
20839;DHT22;10580;51.092;6.828;2022-08-18T05:06:27;18.20;99.90
20839;DHT22;10580;51.092;6.828;2022-08-18T05:15:42;18.40;99.90
20839;DHT22;10580;51.092;6.828;2022-08-18T05:18:08;18.30;99.90
20839;DHT22;10580;51.092;6.828;2022-08-18T05:20:45;18.30;99.90
20839;DHT22;10580;51.092;6.828;2022-08-18T05:26:35;18.30;99.90
20839;DHT22;10580;51.092;6.828;2022-08-18T05:29:01;18.40;99.90
20839;DHT22;10580;51.092;6.828;2022-08-18T05:31:28;18.40;99.90
20839;DHT22;10580;51.092;6.828;2022-08-18T05:33:55;18.40;99.90
20839;DHT22;10580;51.092;6.828;2022-08-18T05:39:23;18.40;99.90
20839;DHT22;10580;51.092;6.828;2022-08-18T05:42:04;18.40;99.90
20839;DHT22;10580;51.092;6.828;2022-08-18T05:44:38;18.40;99.90
20839;DHT22;10580;51.092;6.828;2022-08-18T05:47:11;18.50;99.90
20839;DHT22;10580;51.092;6.828;2022-08-18T05:50:08;18.50;99.90
20839;DHT22;10580;51.092;6.828;2022-08-18T05:53:02;18.60;99.90
20839;DHT22;10580;51.092;6.828;2022-08-18T05:55:43;18.60;99.90
20839;DHT22;10580;51.092;6.828;2022-08-18T06:01:14;18.70;99.90
20839;DHT22;10580;51.092;6.828;2022-08-18T06:03:47;18.70;99.90
20839;DHT22;10580;51.092;6.828;2022-08-18T06:06:19;18.70;99.90
20839;DHT22;10580;51.092;6.828;2022-08-18T06:09:14;18.80;99.90
20839;DHT22;10580;51.092;6.828;2022-08-18T06:12:12;18.80;99.90
20839;DHT22;10580;51.092;6.828;2022-08-18T06:14:43;19.00;99.90
20839;DHT22;10580;51.092;6.828;2022-08-18T06:20:34;19.00;99.90
20839;DHT22;10580;51.092;6.828;2022-08-18T06:23:31;19.00;99.90
20839;DHT22;10580;51.092;6.828;2022-08-18T06:26:13;19.00;99.90
20839;DHT22;10580;51.092;6.828;2022-08-18T06:32:52;19.10;99.90
20839;DHT22;10580;51.092;6.828;2022-08-18T06:35:25;19.10;99.90
20839;DHT22;10580;51.092;6.828;2022-08-18T06:41:21;19.10;99.90
20839;DHT22;10580;51.092;6.828;2022-08-18T06:44:09;19.10;99.90
20839;DHT22;10580;51.092;6.828;2022-08-18T06:46:45;19.10;99.90
20839;DHT22;10580;51.092;6.828;2022-08-18T06:49:36;19.10;99.90
20839;DHT22;10580;51.092;6.828;2022-08-18T06:52:33;19.10;99.90
20839;DHT22;10580;51.092;6.828;2022-08-18T06:55:15;19.10;99.90
20839;DHT22;10580;51.092;6.828;2022-08-18T07:01:06;19.20;99.90
20839;DHT22;10580;51.092;6.828;2022-08-18T07:08:40;19.30;99.90
20839;DHT22;10580;51.092;6.828;2022-08-18T07:11:22;19.30;99.90
20839;DHT22;10580;51.092;6.828;2022-08-18T07:13:51;19.40;99.90
20839;DHT22;10580;51.092;6.828;2022-08-18T07:16:37;19.40;99.90
20839;DHT22;10580;51.092;6.828;2022-08-18T07:19:09;19.30;99.90
20839;DHT22;10580;51.092;6.828;2022-08-18T07:21:37;19.30;99.90
20839;DHT22;10580;51.092;6.828;2022-08-18T07:24:14;19.30;99.90
20839;DHT22;10580;51.092;6.828;2022-08-18T07:27:16;19.40;99.90
20839;DHT22;10580;51.092;6.828;2022-08-18T07:30:07;19.40;99.90
20839;DHT22;10580;51.092;6.828;2022-08-18T07:32:48;19.30;99.90
20839;DHT22;10580;51.092;6.828;2022-08-18T07:35:42;19.40;99.90
20839;DHT22;10580;51.092;6.828;2022-08-18T07:38:26;19.40;99.90
20839;DHT22;10580;51.092;6.828;2022-08-18T07:41:22;19.50;99.90
20839;DHT22;10580;51.092;6.828;2022-08-18T07:55:46;19.50;99.90
20839;DHT22;10580;51.092;6.828;2022-08-18T07:58:27;19.50;99.90
20839;DHT22;10580;51.092;6.828;2022-08-18T08:04:14;19.70;99.90
20839;DHT22;10580;51.092;6.828;2022-08-18T08:13:20;19.70;99.90
20839;DHT22;10580;51.092;6.828;2022-08-18T08:16:17;19.80;99.90
20839;DHT22;10580;51.092;6.828;2022-08-18T08:25:02;19.80;99.90
20839;DHT22;10580;51.092;6.828;2022-08-18T08:30:19;20.00;99.90
20839;DHT22;10580;51.092;6.828;2022-08-18T08:39:20;20.30;99.90
20839;DHT22;10580;51.092;6.828;2022-08-18T08:41:58;20.50;99.90
20839;DHT22;10580;51.092;6.828;2022-08-18T08:47:07;20.70;99.90
20839;DHT22;10580;51.092;6.828;2022-08-18T08:49:42;20.60;99.90
20839;DHT22;10580;51.092;6.828;2022-08-18T08:52:25;20.60;99.90
20839;DHT22;10580;51.092;6.828;2022-08-18T08:57:30;20.60;99.90
20839;DHT22;10580;51.092;6.828;2022-08-18T09:00:00;20.60;99.90
20839;DHT22;10580;51.092;6.828;2022-08-18T09:05:12;20.70;99.90
20839;DHT22;10580;51.092;6.828;2022-08-18T09:07:45;20.60;99.90
20839;DHT22;10580;51.092;6.828;2022-08-18T09:13:54;21.00;99.90
20839;DHT22;10580;51.092;6.828;2022-08-18T09:19:52;21.20;99.90
20839;DHT22;10580;51.092;6.828;2022-08-18T09:22:53;21.30;99.90
20839;DHT22;10580;51.092;6.828;2022-08-18T09:25:54;21.40;99.90
20839;DHT22;10580;51.092;6.828;2022-08-18T09:38:56;22.00;99.90
20839;DHT22;10580;51.092;6.828;2022-08-18T09:42:00;22.60;99.90
20839;DHT22;10580;51.092;6.828;2022-08-18T09:57:32;25.40;1.00
20839;DHT22;10580;51.092;6.828;2022-08-18T10:10:52;24.30;16.90
20839;DHT22;10580;51.092;6.828;2022-08-18T10:35:58;23.40;76.40
20839;DHT22;10580;51.092;6.828;2022-08-18T10:38:46;23.30;69.40
20839;DHT22;10580;51.092;6.828;2022-08-18T10:42:02;23.60;96.90
20839;DHT22;10580;51.092;6.828;2022-08-18T10:44:56;23.80;48.70
20839;DHT22;10580;51.092;6.828;2022-08-18T11:06:10;24.80;1.00
20839;DHT22;10580;51.092;6.828;2022-08-18T11:08:46;24.60;1.00
20839;DHT22;10580;51.092;6.828;2022-08-18T11:11:13;24.70;1.00
20839;DHT22;10580;51.092;6.828;2022-08-18T11:17:02;24.90;1.00
20839;DHT22;10580;51.092;6.828;2022-08-18T11:19:37;24.90;1.00
20839;DHT22;10580;51.092;6.828;2022-08-18T11:22:03;25.00;1.00
20839;DHT22;10580;51.092;6.828;2022-08-18T11:24:30;25.00;1.00
20839;DHT22;10580;51.092;6.828;2022-08-18T11:26:57;25.20;1.00
20839;DHT22;10580;51.092;6.828;2022-08-18T11:29:28;25.10;1.00
20839;DHT22;10580;51.092;6.828;2022-08-18T11:32:19;25.30;1.00
20839;DHT22;10580;51.092;6.828;2022-08-18T11:34:46;25.70;1.00
20839;DHT22;10580;51.092;6.828;2022-08-18T11:58:56;25.30;1.00
20839;DHT22;10580;51.092;6.828;2022-08-18T12:01:32;25.30;1.00
20839;DHT22;10580;51.092;6.828;2022-08-18T12:09:24;25.40;1.00
20839;DHT22;10580;51.092;6.828;2022-08-18T12:11:54;25.30;1.00
20839;DHT22;10580;51.092;6.828;2022-08-18T12:14:29;25.40;1.00
20839;DHT22;10580;51.092;6.828;2022-08-18T12:16:56;25.40;1.00
20839;DHT22;10580;51.092;6.828;2022-08-18T12:19:23;25.40;1.00
20839;DHT22;10580;51.092;6.828;2022-08-18T12:21:57;25.50;1.00
20839;DHT22;10580;51.092;6.828;2022-08-18T12:24:29;25.50;1.00
20839;DHT22;10580;51.092;6.828;2022-08-18T12:26:56;25.50;1.00
20839;DHT22;10580;51.092;6.828;2022-08-18T12:29:23;25.50;1.00
20839;DHT22;10580;51.092;6.828;2022-08-18T12:31:51;25.60;1.00
20839;DHT22;10580;51.092;6.828;2022-08-18T12:34:23;25.50;1.00
20839;DHT22;10580;51.092;6.828;2022-08-18T12:36:54;25.50;1.00
20839;DHT22;10580;51.092;6.828;2022-08-18T12:39:21;25.30;1.00
20839;DHT22;10580;51.092;6.828;2022-08-18T12:41:46;25.40;1.00
20839;DHT22;10580;51.092;6.828;2022-08-18T12:44:12;25.30;1.00
20839;DHT22;10580;51.092;6.828;2022-08-18T12:46:38;25.20;1.00
20839;DHT22;10580;51.092;6.828;2022-08-18T12:49:05;25.30;1.00
20839;DHT22;10580;51.092;6.828;2022-08-18T12:51:34;25.40;1.00
20839;DHT22;10580;51.092;6.828;2022-08-18T12:53:59;25.50;1.00
20839;DHT22;10580;51.092;6.828;2022-08-18T12:56:28;25.60;1.00
20839;DHT22;10580;51.092;6.828;2022-08-18T12:58:59;25.50;1.00
20839;DHT22;10580;51.092;6.828;2022-08-18T13:01:25;25.50;1.00
20839;DHT22;10580;51.092;6.828;2022-08-18T13:03:52;25.50;1.00
20839;DHT22;10580;51.092;6.828;2022-08-18T13:06:21;25.40;1.00
20839;DHT22;10580;51.092;6.828;2022-08-18T13:08:48;25.40;1.00
20839;DHT22;10580;51.092;6.828;2022-08-18T13:11:14;25.40;1.00
20839;DHT22;10580;51.092;6.828;2022-08-18T13:13:41;25.40;1.00
20839;DHT22;10580;51.092;6.828;2022-08-18T13:16:07;25.20;1.00
20839;DHT22;10580;51.092;6.828;2022-08-18T13:18:36;25.50;1.00
20839;DHT22;10580;51.092;6.828;2022-08-18T13:21:03;25.80;1.00
20839;DHT22;10580;51.092;6.828;2022-08-18T13:23:29;26.30;1.00
20839;DHT22;10580;51.092;6.828;2022-08-18T13:25:57;26.40;1.00
20839;DHT22;10580;51.092;6.828;2022-08-18T13:28:24;26.70;1.00
20839;DHT22;10580;51.092;6.828;2022-08-18T13:30:49;26.80;99.90
20839;DHT22;10580;51.092;6.828;2022-08-18T13:33:16;27.10;99.90
20839;DHT22;10580;51.092;6.828;2022-08-18T13:35:43;27.30;1.00
20839;DHT22;10580;51.092;6.828;2022-08-18T13:38:13;27.10;1.00
20839;DHT22;10580;51.092;6.828;2022-08-18T13:40:39;26.90;1.00
20839;DHT22;10580;51.092;6.828;2022-08-18T13:43:04;26.80;99.90
20839;DHT22;10580;51.092;6.828;2022-08-18T13:45:33;26.70;99.90
20839;DHT22;10580;51.092;6.828;2022-08-18T13:47:58;26.80;99.90
20839;DHT22;10580;51.092;6.828;2022-08-18T13:50:26;26.70;1.00
20839;DHT22;10580;51.092;6.828;2022-08-18T13:52:58;26.50;42.40
20839;DHT22;10580;51.092;6.828;2022-08-18T13:55:34;26.50;11.30
20839;DHT22;10580;51.092;6.828;2022-08-18T13:58:00;26.10;99.90
20839;DHT22;10580;51.092;6.828;2022-08-18T14:00:25;26.10;99.90
20839;DHT22;10580;51.092;6.828;2022-08-18T14:02:51;26.10;1.00
20839;DHT22;10580;51.092;6.828;2022-08-18T14:05:20;25.90;99.90
20839;DHT22;10580;51.092;6.828;2022-08-18T14:07:46;25.90;1.00
20839;DHT22;10580;51.092;6.828;2022-08-18T14:13:44;26.10;99.90
20839;DHT22;10580;51.092;6.828;2022-08-18T14:16:11;26.30;99.90
20839;DHT22;10580;51.092;6.828;2022-08-18T14:18:36;26.30;1.00
20839;DHT22;10580;51.092;6.828;2022-08-18T14:21:02;26.50;99.90
20839;DHT22;10580;51.092;6.828;2022-08-18T14:23:46;26.40;99.90
20839;DHT22;10580;51.092;6.828;2022-08-18T14:26:30;26.20;1.00
20839;DHT22;10580;51.092;6.828;2022-08-18T14:29:13;26.50;1.00
20839;DHT22;10580;51.092;6.828;2022-08-18T14:31:39;26.80;99.90
20839;DHT22;10580;51.092;6.828;2022-08-18T14:34:04;26.90;1.00
20839;DHT22;10580;51.092;6.828;2022-08-18T14:36:30;27.10;99.90
20839;DHT22;10580;51.092;6.828;2022-08-18T14:49:29;27.40;99.90
20839;DHT22;10580;51.092;6.828;2022-08-18T14:52:00;27.50;1.00
20839;DHT22;10580;51.092;6.828;2022-08-18T14:54:26;27.40;1.00
20839;DHT22;10580;51.092;6.828;2022-08-18T14:56:55;27.40;26.40
20839;DHT22;10580;51.092;6.828;2022-08-18T14:59:20;27.40;1.00
20839;DHT22;10580;51.092;6.828;2022-08-18T15:01:47;27.60;99.90
20839;DHT22;10580;51.092;6.828;2022-08-18T15:04:13;27.70;1.00
20839;DHT22;10580;51.092;6.828;2022-08-18T15:06:41;27.60;1.00
20839;DHT22;10580;51.092;6.828;2022-08-18T15:09:07;27.70;1.00
20839;DHT22;10580;51.092;6.828;2022-08-18T15:11:34;27.70;1.00
20839;DHT22;10580;51.092;6.828;2022-08-18T15:13:59;27.70;1.00
20839;DHT22;10580;51.092;6.828;2022-08-18T15:16:25;27.70;99.90
20839;DHT22;10580;51.092;6.828;2022-08-18T15:18:52;27.70;99.90
20839;DHT22;10580;51.092;6.828;2022-08-18T15:21:17;27.60;1.00
20839;DHT22;10580;51.092;6.828;2022-08-18T15:24:02;27.30;99.90
20839;DHT22;10580;51.092;6.828;2022-08-18T15:26:47;27.20;99.90
20839;DHT22;10580;51.092;6.828;2022-08-18T15:29:13;27.00;1.00
20839;DHT22;10580;51.092;6.828;2022-08-18T15:31:38;26.90;99.90
20839;DHT22;10580;51.092;6.828;2022-08-18T15:34:04;26.60;99.90
20839;DHT22;10580;51.092;6.828;2022-08-18T15:36:31;26.60;99.90
20839;DHT22;10580;51.092;6.828;2022-08-18T15:38:58;26.70;99.90
20839;DHT22;10580;51.092;6.828;2022-08-18T15:41:29;26.60;1.00
20839;DHT22;10580;51.092;6.828;2022-08-18T15:43:55;26.60;96.70
20839;DHT22;10580;51.092;6.828;2022-08-18T15:46:21;26.60;1.00
20839;DHT22;10580;51.092;6.828;2022-08-18T15:48:47;26.60;1.00
20839;DHT22;10580;51.092;6.828;2022-08-18T15:51:13;26.60;99.90
20839;DHT22;10580;51.092;6.828;2022-08-18T15:53:39;26.70;1.00
20839;DHT22;10580;51.092;6.828;2022-08-18T15:56:05;26.70;99.90
20839;DHT22;10580;51.092;6.828;2022-08-18T15:58:36;26.80;99.90
20839;DHT22;10580;51.092;6.828;2022-08-18T16:01:08;26.80;27.50
20839;DHT22;10580;51.092;6.828;2022-08-18T16:03:34;26.90;99.90
20839;DHT22;10580;51.092;6.828;2022-08-18T16:06:01;26.90;99.90
20839;DHT22;10580;51.092;6.828;2022-08-18T16:08:27;26.70;1.00
20839;DHT22;10580;51.092;6.828;2022-08-18T16:10:53;26.60;1.00
20839;DHT22;10580;51.092;6.828;2022-08-18T16:13:19;26.50;1.00
20839;DHT22;10580;51.092;6.828;2022-08-18T16:15:45;26.30;1.00
20839;DHT22;10580;51.092;6.828;2022-08-18T16:18:15;26.20;99.90
20839;DHT22;10580;51.092;6.828;2022-08-18T16:20:42;26.30;1.00
20839;DHT22;10580;51.092;6.828;2022-08-18T16:23:09;26.20;99.90
20839;DHT22;10580;51.092;6.828;2022-08-18T16:25:37;26.30;99.90
20839;DHT22;10580;51.092;6.828;2022-08-18T16:28:03;26.30;1.00
20839;DHT22;10580;51.092;6.828;2022-08-18T16:30:28;26.30;1.00
20839;DHT22;10580;51.092;6.828;2022-08-18T16:33:03;26.30;99.90
20839;DHT22;10580;51.092;6.828;2022-08-18T16:35:30;26.40;1.00
20839;DHT22;10580;51.092;6.828;2022-08-18T16:38:01;26.30;1.00
20839;DHT22;10580;51.092;6.828;2022-08-18T16:40:28;26.20;1.00
20839;DHT22;10580;51.092;6.828;2022-08-18T16:42:54;26.20;99.90
20839;DHT22;10580;51.092;6.828;2022-08-18T16:45:20;26.10;99.90
20839;DHT22;10580;51.092;6.828;2022-08-18T16:47:46;25.90;99.90
20839;DHT22;10580;51.092;6.828;2022-08-18T16:50:14;25.80;99.90
20839;DHT22;10580;51.092;6.828;2022-08-18T16:52:42;25.60;1.00
20839;DHT22;10580;51.092;6.828;2022-08-18T16:55:10;25.60;1.00
20839;DHT22;10580;51.092;6.828;2022-08-18T16:57:41;25.60;13.00
20839;DHT22;10580;51.092;6.828;2022-08-18T17:00:26;25.50;1.00
20839;DHT22;10580;51.092;6.828;2022-08-18T17:03:11;25.50;1.00
20839;DHT22;10580;51.092;6.828;2022-08-18T17:06:04;25.40;40.70
20839;DHT22;10580;51.092;6.828;2022-08-18T17:08:30;25.30;1.00
20839;DHT22;10580;51.092;6.828;2022-08-18T17:11:02;25.30;1.00
20839;DHT22;10580;51.092;6.828;2022-08-18T17:13:28;25.30;99.90
20839;DHT22;10580;51.092;6.828;2022-08-18T17:15:54;25.30;99.90
20839;DHT22;10580;51.092;6.828;2022-08-18T17:18:20;25.30;99.90
20839;DHT22;10580;51.092;6.828;2022-08-18T17:20:46;25.20;1.00
20839;DHT22;10580;51.092;6.828;2022-08-18T17:23:12;25.20;1.00
20839;DHT22;10580;51.092;6.828;2022-08-18T17:25:38;25.10;1.00
20839;DHT22;10580;51.092;6.828;2022-08-18T17:28:04;25.10;99.90
20839;DHT22;10580;51.092;6.828;2022-08-18T17:30:35;25.10;1.00
20839;DHT22;10580;51.092;6.828;2022-08-18T17:33:09;25.10;99.90
20839;DHT22;10580;51.092;6.828;2022-08-18T17:35:42;25.00;99.90
20839;DHT22;10580;51.092;6.828;2022-08-18T17:40:55;25.00;99.90
20839;DHT22;10580;51.092;6.828;2022-08-18T17:43:24;25.00;99.90
20839;DHT22;10580;51.092;6.828;2022-08-18T17:46:05;24.90;1.00
20839;DHT22;10580;51.092;6.828;2022-08-18T17:48:37;24.90;1.00
20839;DHT22;10580;51.092;6.828;2022-08-18T17:51:09;24.80;99.90
20839;DHT22;10580;51.092;6.828;2022-08-18T17:53:55;24.70;99.90
20839;DHT22;10580;51.092;6.828;2022-08-18T17:56:28;24.70;1.00
20839;DHT22;10580;51.092;6.828;2022-08-18T17:59:07;24.70;1.00
20839;DHT22;10580;51.092;6.828;2022-08-18T18:01:33;24.60;1.00
20839;DHT22;10580;51.092;6.828;2022-08-18T18:04:00;24.60;1.00
20839;DHT22;10580;51.092;6.828;2022-08-18T18:09:04;24.50;1.00
20839;DHT22;10580;51.092;6.828;2022-08-18T18:11:37;24.50;1.00
20839;DHT22;10580;51.092;6.828;2022-08-18T18:19:31;24.30;1.00
20839;DHT22;10580;51.092;6.828;2022-08-18T18:22:21;24.30;1.00
20839;DHT22;10580;51.092;6.828;2022-08-18T18:24:54;24.20;1.00
20839;DHT22;10580;51.092;6.828;2022-08-18T18:35:18;24.00;1.00
20839;DHT22;10580;51.092;6.828;2022-08-18T18:40:35;24.00;1.00
20839;DHT22;10580;51.092;6.828;2022-08-18T18:43:20;23.90;1.00
20839;DHT22;10580;51.092;6.828;2022-08-18T18:51:29;23.80;1.00
20839;DHT22;10580;51.092;6.828;2022-08-18T18:56:39;23.60;1.00
20839;DHT22;10580;51.092;6.828;2022-08-18T19:01:58;23.60;1.00
20839;DHT22;10580;51.092;6.828;2022-08-18T19:04:35;23.50;1.00
20839;DHT22;10580;51.092;6.828;2022-08-18T19:07:17;23.50;1.00
20839;DHT22;10580;51.092;6.828;2022-08-18T19:09:55;23.50;1.00
20839;DHT22;10580;51.092;6.828;2022-08-18T19:12:28;23.40;1.00
20839;DHT22;10580;51.092;6.828;2022-08-18T19:15:03;23.40;1.00
20839;DHT22;10580;51.092;6.828;2022-08-18T19:17:45;23.40;1.00
20839;DHT22;10580;51.092;6.828;2022-08-18T19:20:16;23.30;1.00
20839;DHT22;10580;51.092;6.828;2022-08-18T19:22:55;23.30;1.00
20839;DHT22;10580;51.092;6.828;2022-08-18T19:25:30;23.20;1.00
20839;DHT22;10580;51.092;6.828;2022-08-18T19:28:02;23.20;1.00
20839;DHT22;10580;51.092;6.828;2022-08-18T19:30:36;23.10;1.00
20839;DHT22;10580;51.092;6.828;2022-08-18T19:33:04;23.10;1.00
20839;DHT22;10580;51.092;6.828;2022-08-18T19:36:23;23.00;1.00
20839;DHT22;10580;51.092;6.828;2022-08-18T19:41:03;22.90;1.00
20839;DHT22;10580;51.092;6.828;2022-08-18T19:43:59;22.90;1.00
20839;DHT22;10580;51.092;6.828;2022-08-18T19:46:26;22.90;1.00
20839;DHT22;10580;51.092;6.828;2022-08-18T19:51:36;22.90;1.00
20839;DHT22;10580;51.092;6.828;2022-08-18T19:54:15;23.00;1.00
20839;DHT22;10580;51.092;6.828;2022-08-18T20:00:08;23.10;1.00
20839;DHT22;10580;51.092;6.828;2022-08-18T20:02:47;23.10;1.00
20839;DHT22;10580;51.092;6.828;2022-08-18T20:06:02;23.10;1.00
20839;DHT22;10580;51.092;6.828;2022-08-18T20:13:29;23.10;1.00
20839;DHT22;10580;51.092;6.828;2022-08-18T20:18:46;23.00;1.00
20839;DHT22;10580;51.092;6.828;2022-08-18T20:29:05;22.70;1.00
20839;DHT22;10580;51.092;6.828;2022-08-18T20:31:46;22.60;1.00
20839;DHT22;10580;51.092;6.828;2022-08-18T20:34:17;22.60;1.00
20839;DHT22;10580;51.092;6.828;2022-08-18T20:36:44;22.50;1.00
20839;DHT22;10580;51.092;6.828;2022-08-18T20:42:00;22.20;18.00
20839;DHT22;10580;51.092;6.828;2022-08-18T20:52:44;21.80;43.80
20839;DHT22;10580;51.092;6.828;2022-08-18T20:58:08;21.60;57.60
20839;DHT22;10580;51.092;6.828;2022-08-18T21:00:36;21.50;70.80
20839;DHT22;10580;51.092;6.828;2022-08-18T21:03:08;21.50;65.70
20839;DHT22;10580;51.092;6.828;2022-08-18T21:05:38;21.40;75.30
20839;DHT22;10580;51.092;6.828;2022-08-18T21:10:53;21.30;90.50
20839;DHT22;10580;51.092;6.828;2022-08-18T21:13:32;21.30;94.80